Time;durP1;ratioP1;P1;durP2;ratioP2;P2;SDS_P1;SDS_P2;PMS_P1;PMS_P2;Temp;Humidity;BMP_temperature;BMP_pressure;BME280_temperature;BME280_humidity;BME280_pressure;Samples;Min_cycle;Max_cycle;Signal;HPM_P1;HPM_P2
2020/12/11 00:01:59;;;;;;;54.95;19.92;;;;;;;-0.44;100.00;99666.88;1794069;80;20972;-72
2020/12/11 00:04:27;;;;;;;52.78;18.35;;;;;;;-0.44;100.00;99667.70;1794013;80;20926;-73
2020/12/11 00:06:58;;;;;;;48.95;19.50;;;;;;;-0.42;100.00;99660.72;1774176;80;21001;-73
2020/12/11 00:09:27;;;;;;;63.70;21.57;;;;;;;-0.42;100.00;99654.79;1794267;80;21355;-72
2020/12/11 00:11:55;;;;;;;62.75;19.77;;;;;;;-0.41;100.00;99655.61;1794009;80;20976;-72
2020/12/11 00:14:23;;;;;;;54.08;20.32;;;;;;;-0.42;100.00;99653.44;1794092;80;21020;-72
2020/12/11 00:16:52;;;;;;;50.73;17.75;;;;;;;-0.40;100.00;99654.02;1794078;80;20913;-71
2020/12/11 00:19:20;;;;;;;57.13;19.75;;;;;;;-0.41;100.00;99653.73;1794103;80;20941;-72
2020/12/11 00:21:49;;;;;;;63.25;19.80;;;;;;;-0.41;100.00;99658.30;1794074;80;23504;-72
2020/12/11 00:24:17;;;;;;;55.08;18.70;;;;;;;-0.41;100.00;99654.27;1794014;80;20952;-73
2020/12/11 00:26:45;;;;;;;53.02;20.12;;;;;;;-0.40;100.00;99649.16;1794077;80;21000;-72
2020/12/11 00:29:13;;;;;;;58.40;21.55;;;;;;;-0.41;100.00;99652.38;1794065;80;21570;-73
2020/12/11 00:31:41;;;;;;;54.80;21.45;;;;;;;-0.40;100.00;99645.92;1794061;80;20932;-72
2020/12/11 00:34:09;;;;;;;57.73;19.77;;;;;;;-0.37;100.00;99648.67;1794021;80;21492;-72
2020/12/11 00:36:40;;;;;;;49.25;18.57;;;;;;;-0.37;100.00;99637.88;1793988;80;21519;-72
2020/12/11 00:39:07;;;;;;;53.00;18.82;;;;;;;-0.37;100.00;99651.37;1794097;80;20940;-72
2020/12/11 00:41:39;;;;;;;63.75;19.75;;;;;;;-0.38;100.00;99645.16;1794126;80;21020;-72
2020/12/11 00:44:07;;;;;;;54.60;19.23;;;;;;;-0.36;100.00;99642.22;1794324;80;22118;-72
2020/12/11 00:46:34;;;;;;;56.48;20.60;;;;;;;-0.37;100.00;99641.40;1794027;80;21381;-72
2020/12/11 00:49:02;;;;;;;49.67;18.70;;;;;;;-0.35;100.00;99641.16;1794018;80;20929;-75
2020/12/11 00:51:29;;;;;;;60.98;20.27;;;;;;;-0.33;100.00;99645.78;1794040;80;20913;-75
2020/12/11 00:53:57;;;;;;;55.75;20.65;;;;;;;-0.32;100.00;99639.86;1794052;80;20972;-76
2020/12/11 00:56:24;;;;;;;52.73;19.95;;;;;;;-0.32;100.00;99644.72;1774231;80;21151;-74
2020/12/11 00:58:52;;;;;;;61.08;20.80;;;;;;;-0.31;100.00;99646.36;1794078;80;21370;-72
2020/12/11 01:01:20;;;;;;;57.80;19.50;;;;;;;-0.30;100.00;99643.95;1794000;80;21075;-73
2020/12/11 01:03:48;;;;;;;60.17;21.20;;;;;;;-0.29;100.00;99636.67;1794023;79;20956;-74
2020/12/11 01:06:15;;;;;;;63.63;24.12;;;;;;;-0.29;100.00;99638.02;1794089;80;21115;-75
2020/12/11 01:08:43;;;;;;;61.73;21.20;;;;;;;-0.28;100.00;99650.45;1794088;79;21008;-77
2020/12/11 01:11:10;;;;;;;60.75;21.90;;;;;;;-0.28;100.00;99641.01;1794023;80;21320;-77
2020/12/11 01:13:38;;;;;;;68.30;22.42;;;;;;;-0.28;100.00;99636.43;1793900;80;21000;-78
2020/12/11 01:16:06;;;;;;;64.27;23.57;;;;;;;-0.27;100.00;99641.30;1794028;80;20929;-77
2020/12/11 01:18:33;;;;;;;70.00;23.73;;;;;;;-0.25;100.00;99635.95;1794017;80;21028;-75
2020/12/11 01:21:01;;;;;;;63.15;23.18;;;;;;;-0.25;100.00;99628.38;1794040;80;20881;-74
2020/12/11 01:23:29;;;;;;;71.90;23.40;;;;;;;-0.23;100.00;99631.66;1794033;80;21350;-74
2020/12/11 01:25:56;;;;;;;66.80;23.05;;;;;;;-0.23;100.00;99621.69;1793946;80;21563;-74
2020/12/11 01:28:24;;;;;;;62.40;22.48;;;;;;;-0.21;100.00;99621.44;1794020;80;21063;-75
2020/12/11 01:30:51;;;;;;;73.35;24.57;;;;;;;-0.22;100.00;99623.85;1794002;79;21511;-75
2020/12/11 01:33:19;;;;;;;58.73;22.45;;;;;;;-0.23;100.00;99623.03;1794089;79;21063;-75
2020/12/11 01:35:46;;;;;;;68.90;24.60;;;;;;;-0.21;100.00;99635.75;1796857;79;21408;-74
2020/12/11 01:38:14;;;;;;;77.17;23.57;;;;;;;-0.21;100.00;99645.20;1796793;79;21546;-73
2020/12/11 01:40:44;;;;;;;66.15;23.85;;;;;;;-0.22;100.00;99634.11;1796789;79;20944;-76
2020/12/11 01:43:11;;;;;;;66.65;23.57;;;;;;;-0.22;100.00;99640.86;1796835;79;20929;-74
2020/12/11 01:45:38;;;;;;;59.95;22.35;;;;;;;-0.20;100.00;99641.44;1796812;79;21483;-75
2020/12/11 01:48:06;;;;;;;57.70;22.15;;;;;;;-0.18;100.00;99646.59;1796839;79;21188;-75
2020/12/11 01:50:34;;;;;;;66.90;23.32;;;;;;;-0.18;100.00;99637.96;1796800;79;21122;-75
2020/12/11 01:53:02;;;;;;;64.72;23.32;;;;;;;-0.17;100.00;99630.69;1797076;79;21515;-74
2020/12/11 01:55:29;;;;;;;62.65;23.73;;;;;;;-0.16;100.00;99629.09;1796942;79;21044;-74
2020/12/11 01:58:02;;;;;;;61.48;22.82;;;;;;;-0.16;100.00;99626.39;1797107;79;21571;-76
2020/12/11 02:00:30;;;;;;;57.03;21.77;;;;;;;-0.15;100.00;99630.73;1797002;79;21355;-75
2020/12/11 02:03:05;;;;;;;57.48;22.32;;;;;;;-0.13;100.00;99628.61;1796942;79;20952;-75
2020/12/11 02:05:32;;;;;;;60.28;21.87;;;;;;;-0.11;100.00;99622.97;1796931;79;20928;-75
2020/12/11 02:08:00;;;;;;;45.83;20.05;;;;;;;-0.10;100.00;99625.95;1796920;79;21123;-72
2020/12/11 02:10:27;;;;;;;53.05;21.37;;;;;;;-0.09;100.00;99624.36;1796992;79;21055;-72
2020/12/11 02:12:55;;;;;;;52.13;19.42;;;;;;;-0.08;100.00;99623.83;1796967;79;21374;-72
2020/12/11 02:15:22;;;;;;;51.20;21.65;;;;;;;-0.08;100.00;99619.25;1797007;79;20929;-72
2020/12/11 02:17:55;;;;;;;56.95;21.07;;;;;;;-0.07;100.00;99624.94;1797063;79;21487;-72
2020/12/11 02:20:19;;;;;;;45.80;17.60;;;;;;;-0.04;100.00;99614.18;1796468;79;21067;-72
2020/12/11 02:22:46;;;;;;;46.18;18.90;;;;;;;-0.03;100.00;99617.17;1796984;79;20968;-72
2020/12/11 02:25:14;;;;;;;52.45;19.55;;;;;;;-0.03;100.00;99617.17;1796923;79;21369;-72
2020/12/11 02:27:41;;;;;;;46.02;18.55;;;;;;;-0.02;100.00;99614.75;1796922;79;20953;-72
2020/12/11 02:30:08;;;;;;;48.35;20.32;;;;;;;-0.02;100.00;99612.05;1796972;79;20944;-72
2020/12/11 02:32:36;;;;;;;52.08;20.30;;;;;;;-0.02;100.00;99614.75;1796869;79;21538;-73
2020/12/11 02:35:04;;;;;;;44.83;19.75;;;;;;;-0.02;100.00;99625.02;1795160;79;21059;-72
2020/12/11 02:37:31;;;;;;;46.90;19.60;;;;;;;-0.01;100.00;99615.86;1794150;80;21087;-78
2020/12/11 02:39:59;;;;;;;41.55;19.17;;;;;;;0.00;100.00;99618.03;1794090;80;20944;-75
2020/12/11 02:42:26;;;;;;;44.48;18.30;;;;;;;-0.01;100.00;99617.21;1794164;80;21543;-81
2020/12/11 02:44:54;;;;;;;41.28;17.62;;;;;;;0.00;100.00;99620.73;1794187;80;21111;-81
2020/12/11 02:47:22;;;;;;;40.33;18.40;;;;;;;0.00;100.00;99623.42;1794128;80;21079;-75
2020/12/11 02:49:50;;;;;;;43.55;19.07;;;;;;;-0.01;100.00;99623.95;1794151;79;21350;-75
2020/12/11 02:52:18;;;;;;;46.63;16.60;;;;;;;-0.01;100.00;99636.63;1794069;80;21083;-73
2020/12/11 02:54:46;;;;;;;43.17;17.80;;;;;;;0.00;100.00;99640.41;1794114;80;20988;-71
2020/12/11 02:57:14;;;;;;;43.90;17.30;;;;;;;0.00;100.00;99646.37;1794123;80;21133;-74
2020/12/11 02:59:42;;;;;;;46.92;17.17;;;;;;;-0.01;100.00;99644.73;1794150;80;20917;-76
2020/12/11 03:02:09;;;;;;;41.92;18.23;;;;;;;0.00;100.00;99651.77;1794108;80;21377;-74
2020/12/11 03:04:37;;;;;;;41.80;16.97;;;;;;;0.00;100.00;99645.02;1794141;80;21558;-73
2020/12/11 03:07:04;;;;;;;38.67;16.37;;;;;;;-0.01;100.00;99650.95;1794055;80;20992;-73
2020/12/11 03:09:35;;;;;;;39.67;17.62;;;;;;;-0.01;100.00;99639.33;1794065;80;21031;-72
2020/12/11 03:12:02;;;;;;;39.10;16.65;;;;;;;0.00;100.00;99642.32;1794113;80;21035;-70
2020/12/11 03:14:30;;;;;;;38.53;17.45;;;;;;;-0.02;100.00;99639.86;1794084;80;21290;-69
2020/12/11 03:16:57;;;;;;;38.85;17.23;;;;;;;-0.03;100.00;99646.86;1794072;80;20941;-72
2020/12/11 03:19:25;;;;;;;38.65;17.35;;;;;;;-0.03;100.00;99638.76;1794184;80;20977;-70
2020/12/11 03:21:52;;;;;;;37.53;16.40;;;;;;;-0.04;100.00;99636.59;1794122;80;21039;-74
2020/12/11 03:24:20;;;;;;;34.55;14.80;;;;;;;-0.05;100.00;99639.53;1794124;79;21043;-75
2020/12/11 03:26:48;;;;;;;38.75;16.95;;;;;;;-0.06;100.00;99630.62;1794207;80;22110;-83
2020/12/11 03:29:15;;;;;;;39.30;16.97;;;;;;;-0.04;100.00;99629.84;1794165;80;21004;-83
2020/12/11 03:31:42;;;;;;;33.02;15.95;;;;;;;-0.05;100.00;99625.51;1794122;80;20929;-77
2020/12/11 03:34:10;;;;;;;37.48;17.30;;;;;;;-0.05;100.00;99628.20;1794184;80;20925;-77
2020/12/11 03:36:39;;;;;;;37.38;17.48;;;;;;;-0.05;100.00;99634.14;1794170;80;21467;-77
2020/12/11 03:39:06;;;;;;;34.75;16.57;;;;;;;-0.07;100.00;99626.28;1784821;78;21425;-82
2020/12/11 03:41:34;;;;;;;38.92;15.48;;;;;;;-0.07;100.00;99627.63;1766526;80;21019;-80
2020/12/11 03:44:02;;;;;;;36.00;15.65;;;;;;;-0.07;100.00;99628.16;1762742;81;21142;-82
2020/12/11 03:46:30;;;;;;;29.80;14.05;;;;;;;-0.08;100.00;99625.17;1762698;81;21055;-81
2020/12/11 03:48:57;;;;;;;34.63;15.32;;;;;;;-0.10;100.00;99625.42;1762732;80;21123;-81
2020/12/11 03:51:25;;;;;;;36.55;16.52;;;;;;;-0.11;100.00;99627.83;1762697;81;21434;-84
2020/12/11 03:53:52;;;;;;;35.05;15.32;;;;;;;-0.12;100.00;99628.89;1762751;81;21506;-78
2020/12/11 03:56:20;;;;;;;35.70;14.55;;;;;;;-0.14;100.00;99631.55;1762725;81;21142;-84
2020/12/11 03:58:47;;;;;;;34.48;15.45;;;;;;;-0.13;100.00;99626.44;1762723;81;21570;-86
2020/12/11 04:01:15;;;;;;;34.85;15.20;;;;;;;-0.13;100.00;99630.48;1762750;81;21154;-83
2020/12/11 04:03:43;;;;;;;33.30;14.60;;;;;;;-0.15;100.00;99630.73;1762745;81;21362;-78
2020/12/11 04:06:14;;;;;;;30.52;15.25;;;;;;;-0.16;100.00;99633.14;1762559;81;20948;-86
2020/12/11 04:08:42;;;;;;;29.50;13.40;;;;;;;-0.17;100.00;99628.80;1762714;81;20929;-85
2020/12/11 04:11:12;;;;;;;32.25;14.90;;;;;;;-0.17;100.00;99635.55;1762705;81;21071;-83
2020/12/11 04:13:40;;;;;;;38.40;14.85;;;;;;;-0.16;100.00;99643.11;1762727;81;21059;-84
2020/12/11 04:16:09;;;;;;;35.00;14.55;;;;;;;-0.17;100.00;99636.91;1762738;81;21126;-83
2020/12/11 04:18:37;;;;;;;35.92;15.15;;;;;;;-0.17;100.00;99643.64;1762743;81;21150;-76
2020/12/11 04:21:04;;;;;;;31.97;15.10;;;;;;;-0.17;100.00;99642.30;1762670;81;21040;-84
2020/12/11 04:23:33;;;;;;;27.35;12.43;;;;;;;-0.18;100.00;99642.01;1762694;81;21166;-85
2020/12/11 04:26:00;;;;;;;29.77;14.70;;;;;;;-0.19;100.00;99644.42;1762693;80;21047;-86
2020/12/11 04:28:28;;;;;;;27.10;13.65;;;;;;;-0.20;100.00;99637.38;1767620;78;21378;-85
2020/12/11 04:30:55;;;;;;;29.55;13.88;;;;;;;-0.19;100.00;99632.81;1775537;80;20980;-82
2020/12/11 04:33:23;;;;;;;30.35;13.18;;;;;;;-0.21;100.00;99643.84;1762788;81;21166;-83
2020/12/11 04:35:51;;;;;;;32.17;14.13;;;;;;;-0.19;100.00;99626.06;1764526;81;21455;-83
2020/12/11 04:38:19;;;;;;;28.23;13.65;;;;;;;-0.20;100.00;99632.52;1765447;81;20933;-84
2020/12/11 04:40:47;;;;;;;31.23;14.58;;;;;;;-0.20;100.00;99633.34;1765389;81;21360;-80
2020/12/11 04:43:14;;;;;;;29.82;11.80;;;;;;;-0.22;100.00;99632.77;1765357;81;21132;-82
2020/12/11 04:45:42;;;;;;;27.62;12.95;;;;;;;-0.21;100.00;99633.05;1765334;81;21121;-77
2020/12/11 04:48:10;;;;;;;29.90;13.53;;;;;;;-0.22;100.00;99630.06;1765455;81;21491;-77
2020/12/11 04:50:38;;;;;;;31.85;12.80;;;;;;;-0.23;100.00;99632.47;1765294;80;21154;-80
2020/12/11 04:53:05;;;;;;;25.27;12.90;;;;;;;-0.24;100.00;99630.84;1765432;81;21151;-80
2020/12/11 04:55:35;;;;;;;30.08;13.60;;;;;;;-0.24;100.00;99642.98;1766656;80;20944;-86
2020/12/11 04:58:05;;;;;;;31.45;12.82;;;;;;;-0.25;100.00;99637.83;1766355;81;20937;-84
2020/12/11 05:00:32;;;;;;;26.25;12.58;;;;;;;-0.27;100.00;99642.11;1765628;81;21055;-80
2020/12/11 05:03:01;;;;;;;32.60;14.87;;;;;;;-0.24;100.00;99648.91;1765417;81;20992;-78
2020/12/11 05:05:29;;;;;;;27.20;11.68;;;;;;;-0.26;100.00;99646.45;1765348;81;21193;-83
2020/12/11 05:07:56;;;;;;;32.55;13.80;;;;;;;-0.27;100.00;99650.20;1765443;81;21000;-79
2020/12/11 05:10:24;;;;;;;32.10;12.55;;;;;;;-0.27;100.00;99648.04;1765376;81;21121;-79
2020/12/11 05:12:51;;;;;;;31.25;13.18;;;;;;;-0.27;100.00;99647.52;1765480;81;21526;-80
2020/12/11 05:15:21;;;;;;;29.52;13.28;;;;;;;-0.29;100.00;99650.98;1744832;81;21190;-81
2020/12/11 05:17:48;;;;;;;30.82;13.43;;;;;;;-0.28;100.00;99651.80;1764505;81;21375;-81
2020/12/11 05:20:16;;;;;;;30.15;13.80;;;;;;;-0.28;100.00;99650.45;1765140;81;20992;-80
2020/12/11 05:22:43;;;;;;;37.98;14.78;;;;;;;-0.30;100.00;99653.39;1765447;81;21585;-79
2020/12/11 05:25:14;;;;;;;34.63;15.00;;;;;;;-0.31;100.00;99657.15;1765445;81;21478;-80
2020/12/11 05:27:46;;;;;;;33.58;14.70;;;;;;;-0.31;100.00;99654.98;1746116;81;21066;-77
2020/12/11 05:30:19;;;;;;;31.30;13.45;;;;;;;-0.32;100.00;99652.81;1765737;81;21364;-74
2020/12/11 05:32:51;;;;;;;37.80;14.63;;;;;;;-0.34;100.00;99654.94;1769323;78;21011;-75
2020/12/11 05:35:30;;;;;;;35.85;13.95;;;;;;;-0.36;100.00;99653.83;1785515;79;20935;-75
2020/12/11 05:38:04;;;;;;;33.00;14.53;;;;;;;-0.35;100.00;99654.64;1765393;81;20992;-75
2020/12/11 05:40:39;;;;;;;33.63;14.73;;;;;;;-0.38;100.00;99663.22;1765652;81;21578;-76
2020/12/11 05:43:22;;;;;;;35.45;15.28;;;;;;;-0.40;100.00;99666.16;1765509;80;21362;-75
2020/12/11 05:45:59;;;;;;;34.90;14.65;;;;;;;-0.42;100.00;99673.67;1765474;81;21093;-75
2020/12/11 05:48:38;;;;;;;38.60;15.90;;;;;;;-0.42;100.00;99672.32;1765557;81;20991;-77
2020/12/11 05:51:13;;;;;;;35.33;15.10;;;;;;;-0.44;100.00;99680.36;1765535;81;20933;-77
2020/12/11 05:53:41;;;;;;;34.25;16.00;;;;;;;-0.46;100.00;99673.05;1765673;81;21069;-80
2020/12/11 05:56:08;;;;;;;38.73;15.85;;;;;;;-0.47;100.00;99674.10;1765528;81;21876;-77
2020/12/11 05:58:36;;;;;;;38.48;14.35;;;;;;;-0.48;99.97;99672.47;1765465;80;21040;-76
2020/12/11 06:01:03;;;;;;;35.25;14.85;;;;;;;-0.49;99.89;99681.61;1765460;81;20988;-78
2020/12/11 06:03:31;;;;;;;37.78;15.15;;;;;;;-0.51;99.74;99672.94;1765509;80;20952;-78
2020/12/11 06:05:59;;;;;;;33.78;13.80;;;;;;;-0.52;99.55;99679.40;1765464;81;21055;-77
2020/12/11 06:08:27;;;;;;;28.77;14.05;;;;;;;-0.53;99.41;99683.16;1765540;81;21198;-80
2020/12/11 06:10:54;;;;;;;36.68;15.00;;;;;;;-0.52;99.62;99682.09;1765546;81;21142;-78
2020/12/11 06:13:36;;;;;;;33.15;14.33;;;;;;;-0.51;99.57;99681.03;1765521;81;20933;-76
2020/12/11 06:16:04;;;;;;;31.82;13.45;;;;;;;-0.53;99.27;99690.72;1715981;82;21187;-76
2020/12/11 06:18:33;;;;;;;34.90;13.93;;;;;;;-0.55;99.24;99687.97;1716246;83;20931;-75
2020/12/11 06:21:00;;;;;;;32.88;15.40;;;;;;;-0.53;99.34;99684.50;1714282;82;22266;-78
2020/12/11 06:23:29;;;;;;;35.50;14.25;;;;;;;-0.55;99.14;99686.62;1701716;83;21575;-78
2020/12/11 06:25:58;;;;;;;34.27;13.93;;;;;;;-0.55;99.17;99687.97;1687474;85;21139;-78
2020/12/11 06:28:50;;;;;;;29.00;13.10;;;;;;;-0.54;99.20;99690.95;1689149;83;21596;-77
2020/12/11 06:31:20;;;;;;;31.33;12.43;;;;;;;-0.56;98.90;99688.49;1687826;84;21222;-76
2020/12/11 06:33:54;;;;;;;31.30;13.95;;;;;;;-0.57;98.79;99693.59;1708052;84;21420;-74
2020/12/11 06:36:21;;;;;;;35.68;13.43;;;;;;;-0.56;98.97;99685.80;1700324;83;21097;-75
2020/12/11 06:38:55;;;;;;;32.35;16.07;;;;;;;-0.52;99.11;99696.92;1701532;83;21058;-76
2020/12/11 06:41:34;;;;;;;28.65;14.13;;;;;;;-0.53;98.69;99686.67;1724562;83;21481;-76
2020/12/11 06:44:15;;;;;;;40.12;15.10;;;;;;;-0.54;98.54;99686.91;1724517;82;21069;-75
2020/12/11 06:46:43;;;;;;;29.45;14.05;;;;;;;-0.53;98.34;99684.50;1724481;82;21200;-82
2020/12/11 06:52:02;;;;;;;28.75;14.70;;;;;;;-0.51;97.73;99681.03;1885538;76;22377;-82
2020/12/11 06:54:38;;;;;;;30.75;12.53;;;;;;;-0.55;97.86;99686.62;1842345;77;20990;-78
2020/12/11 06:57:06;;;;;;;29.95;14.07;;;;;;;-0.57;97.43;99681.99;1827385;78;21368;-81
2020/12/11 06:59:39;;;;;;;30.75;13.48;;;;;;;-0.60;96.75;99683.32;1827375;78;21482;-81
2020/12/11 07:02:17;;;;;;;27.48;13.55;;;;;;;-0.62;96.52;99685.44;1827364;78;20884;-80
2020/12/11 07:04:50;;;;;;;34.50;14.73;;;;;;;-0.62;96.67;99673.30;1827463;78;21459;-83
2020/12/11 07:07:23;;;;;;;28.30;12.90;;;;;;;-0.63;96.44;99672.20;1827527;78;21597;-77
2020/12/11 07:09:54;;;;;;;34.58;14.58;;;;;;;-0.64;96.37;99672.73;1770477;78;21457;-85
2020/12/11 07:12:24;;;;;;;31.77;13.90;;;;;;;-0.64;96.59;99671.38;1827485;78;20926;-83
2020/12/11 07:14:52;;;;;;;29.57;13.78;;;;;;;-0.64;96.49;99675.42;1827440;78;21557;-78
2020/12/11 07:17:27;;;;;;;34.33;14.05;;;;;;;-0.65;96.25;99674.31;1827272;78;20974;-75
2020/12/11 07:19:56;;;;;;;41.15;14.43;;;;;;;-0.67;96.16;99662.42;1827385;78;20911;-80
2020/12/11 07:22:24;;;;;;;32.38;13.83;;;;;;;-0.68;96.10;99664.83;1827470;78;21329;-79
2020/12/11 07:24:51;;;;;;;32.67;14.68;;;;;;;-0.75;95.41;99664.96;1827653;78;20964;-83
2020/12/11 07:27:19;;;;;;;32.13;14.15;;;;;;;-0.80;95.04;99651.37;1827275;78;20940;-81
2020/12/11 07:29:50;;;;;;;34.55;14.93;;;;;;;-0.82;95.35;99657.53;1827335;78;20911;-80
2020/12/11 07:32:21;;;;;;;32.50;16.23;;;;;;;-0.83;95.43;99663.98;1839275;77;20998;-80
2020/12/11 07:34:49;;;;;;;36.20;13.98;;;;;;;-0.81;95.46;99660.52;1847279;77;22238;-81
2020/12/11 07:37:18;;;;;;;27.80;12.23;;;;;;;-0.82;95.29;99652.67;1848225;76;20918;-82
2020/12/11 07:39:45;;;;;;;32.95;14.58;;;;;;;-0.83;95.03;99649.16;1854892;76;20922;-83
2020/12/11 07:42:12;;;;;;;29.85;13.58;;;;;;;-0.86;94.75;99649.64;1847262;77;20916;-80
2020/12/11 07:44:40;;;;;;;27.87;13.40;;;;;;;-0.86;94.70;99657.72;1847343;77;21113;-83
2020/12/11 07:47:10;;;;;;;31.52;13.32;;;;;;;-0.85;95.07;99655.84;1847326;77;21863;-84
2020/12/11 07:49:42;;;;;;;30.88;12.90;;;;;;;-0.82;95.29;99660.23;1847214;77;20994;-84
2020/12/11 07:52:10;;;;;;;29.63;12.55;;;;;;;-0.78;95.09;99664.09;1850008;77;21007;-85
2020/12/11 07:54:43;;;;;;;31.30;13.38;;;;;;;-0.78;94.61;99666.78;1850232;77;21042;-86
2020/12/11 07:57:16;;;;;;;31.95;13.85;;;;;;;-0.78;94.92;99670.83;1850517;77;21553;-85
2020/12/11 08:00:01;;;;;;;28.73;13.50;;;;;;;-0.78;94.81;99668.13;1849670;77;21370;-88
2020/12/11 08:02:36;;;;;;;29.82;13.13;;;;;;;-0.74;94.84;99665.78;1873738;76;22718;-83
2020/12/11 08:05:07;;;;;;;33.40;14.03;;;;;;;-0.77;95.18;99666.25;1841739;78;20920;-83
2020/12/11 08:07:35;;;;;;;34.03;15.23;;;;;;;-0.77;95.31;99664.38;1841795;77;21454;-79
2020/12/11 08:10:14;;;;;;;30.35;14.47;;;;;;;-0.77;95.42;99664.38;1841614;78;21015;-78
2020/12/11 08:12:41;;;;;;;35.63;15.65;;;;;;;-0.72;95.94;99668.53;1841724;77;20932;-81
2020/12/11 08:15:10;;;;;;;35.00;14.95;;;;;;;-0.70;96.08;99662.37;1842107;77;21035;-81
2020/12/11 08:17:41;;;;;;;31.97;13.98;;;;;;;-0.72;95.64;99659.09;1842515;78;20905;-79
2020/12/11 08:20:08;;;;;;;31.77;13.90;;;;;;;-0.73;95.78;99662.84;1841712;78;21459;-77
2020/12/11 08:22:39;;;;;;;28.67;14.07;;;;;;;-0.67;96.26;99659.72;1841635;78;20925;-78
2020/12/11 08:25:26;;;;;;;31.35;14.35;;;;;;;-0.67;95.93;99660.55;1841675;78;20984;-80
2020/12/11 08:27:53;;;;;;;26.68;13.62;;;;;;;-0.63;96.11;99660.06;1841647;78;20936;-81
2020/12/11 08:30:22;;;;;;;27.73;13.05;;;;;;;-0.62;95.38;99657.66;1841752;78;21541;-79
2020/12/11 08:32:50;;;;;;;33.90;14.70;;;;;;;-0.59;95.19;99655.30;1815686;78;23591;-82
2020/12/11 08:35:22;;;;;;;32.05;16.17;;;;;;;-0.58;94.06;99651.55;1808546;79;21455;-82
2020/12/11 08:37:57;;;;;;;35.15;16.25;;;;;;;-0.56;93.58;99660.71;1806991;79;20992;-80
2020/12/11 08:40:26;;;;;;;38.50;18.07;;;;;;;-0.52;91.90;99656.47;1809027;78;20912;-77
2020/12/11 08:49:10;;;;;;;43.10;17.95;;;;;;;-0.32;89.82;99647.42;1807069;79;21166;-77
2020/12/11 08:51:28;;;;;;;35.17;17.23;;;;;;;-0.16;90.18;99653.91;1805518;79;21110;-78
2020/12/11 08:53:57;;;;;;;34.00;13.35;;;;;;;0.03;90.07;99643.68;1808653;79;20884;-79
2020/12/11 08:56:26;;;;;;;25.97;12.03;;;;;;;0.19;89.77;99652.32;1805829;79;20991;-79
2020/12/11 08:58:53;;;;;;;28.70;13.48;;;;;;;0.23;87.66;99652.12;1808627;79;21375;-77
2020/12/11 09:01:21;;;;;;;31.48;12.68;;;;;;;0.17;86.71;99653.91;1808441;79;21109;-78
2020/12/11 09:03:49;;;;;;;29.18;13.90;;;;;;;0.07;87.19;99647.00;1808585;79;21023;-77
2020/12/11 09:06:17;;;;;;;28.23;12.58;;;;;;;-0.06;87.08;99638.72;1808662;79;21055;-78
2020/12/11 09:08:44;;;;;;;33.90;13.80;;;;;;;-0.24;86.26;99648.38;1808585;79;20916;-81
2020/12/11 09:11:12;;;;;;;34.80;14.43;;;;;;;-0.40;87.03;99645.11;1808678;79;21374;-79
2020/12/11 09:13:41;;;;;;;34.27;13.08;;;;;;;-0.56;87.46;99645.88;1808031;79;21008;-78
2020/12/11 09:16:08;;;;;;;29.98;13.08;;;;;;;-0.66;87.71;99646.53;1807997;79;21326;-81
2020/12/11 09:18:36;;;;;;;36.25;13.98;;;;;;;-0.74;88.09;99643.69;1808079;79;21411;-78
2020/12/11 09:21:03;;;;;;;30.02;13.88;;;;;;;-0.75;88.98;99644.74;1807986;79;21553;-80
2020/12/11 09:23:31;;;;;;;33.53;13.53;;;;;;;-0.77;88.82;99638.77;1807983;79;21363;-79
2020/12/11 09:25:58;;;;;;;33.23;14.90;;;;;;;-0.81;88.63;99639.48;1807935;79;20928;-79
2020/12/11 09:28:26;;;;;;;34.20;15.70;;;;;;;-0.83;89.24;99641.08;1807975;79;20928;-77
2020/12/11 09:30:53;;;;;;;29.30;14.30;;;;;;;-0.85;89.07;99648.58;1807979;79;20885;-77
2020/12/11 09:33:24;;;;;;;35.10;14.38;;;;;;;-0.88;88.99;99648.23;1808000;78;20999;-78
2020/12/11 09:35:50;;;;;;;35.25;14.25;;;;;;;-0.93;88.99;99640.87;1807956;79;21325;-78
2020/12/11 09:38:18;;;;;;;45.20;16.25;;;;;;;-0.98;89.75;99638.59;1807909;79;20937;-78
2020/12/11 09:40:51;;;;;;;38.50;16.50;;;;;;;-1.04;89.82;99641.71;1807941;79;20999;-78
2020/12/11 09:46:15;;;;;;;40.75;17.42;;;;;;;-1.09;90.12;99624.91;1805302;78;20954;-77
2020/12/11 09:56:26;;;;;;;37.30;16.35;;;;;;;-1.00;89.92;99611.36;1841225;77;21367;-77
2020/12/11 10:02:02;;;;;;;45.75;19.07;;;;;;;-0.85;89.99;99610.84;1867052;75;22688;-77
2020/12/11 10:04:23;;;;;;;35.95;16.77;;;;;;;-0.87;89.47;99614.84;1827739;77;20933;-78
2020/12/11 10:06:51;;;;;;;37.33;17.23;;;;;;;-0.91;89.07;99617.19;1823089;77;22844;-81
2020/12/11 10:09:19;;;;;;;39.73;17.32;;;;;;;-0.99;88.67;99609.48;1816557;79;21089;-78
2020/12/11 10:11:52;;;;;;;37.85;18.73;;;;;;;-1.06;89.33;99598.84;1816673;79;21510;-80
2020/12/11 10:17:09;;;;;;;37.58;19.92;;;;;;;-1.04;89.75;99592.69;1872561;76;27833;-79
2020/12/11 10:19:37;;;;;;;46.05;19.82;;;;;;;-1.09;89.40;99584.50;1775440;80;21458;-78
2020/12/11 10:22:05;;;;;;;48.70;20.32;;;;;;;-1.07;89.44;99589.65;1807353;79;21481;-77
2020/12/11 10:24:33;;;;;;;38.17;17.73;;;;;;;-1.11;89.37;99586.61;1807229;79;21124;-75
2020/12/11 10:27:01;;;;;;;41.85;18.62;;;;;;;-1.17;88.50;99576.00;1807249;79;21013;-78
2020/12/11 10:29:28;;;;;;;44.05;18.85;;;;;;;-1.24;88.84;99586.91;1789097;79;20922;-76
2020/12/11 10:31:55;;;;;;;37.90;18.82;;;;;;;-1.27;89.23;99588.73;1816871;77;20875;-78
2020/12/11 10:34:23;;;;;;;42.20;19.07;;;;;;;-1.30;89.40;99589.20;1850073;77;21540;-76
2020/12/11 10:36:51;;;;;;;44.35;20.00;;;;;;;-1.32;89.30;99586.45;1835099;77;20989;-80
2020/12/11 10:39:18;;;;;;;45.88;20.57;;;;;;;-1.32;90.18;99588.62;1849985;77;20903;-80
2020/12/11 10:41:45;;;;;;;46.65;22.62;;;;;;;-1.28;90.48;99587.09;1849970;77;20901;-79
2020/12/11 10:44:13;;;;;;;48.95;20.48;;;;;;;-1.27;90.03;99583.87;1849990;77;20981;-75
2020/12/11 10:46:41;;;;;;;52.90;21.07;;;;;;;-1.37;89.31;99601.45;1849895;77;23655;-79
2020/12/11 10:49:09;;;;;;;52.05;22.95;;;;;;;-1.47;89.40;99605.79;1849877;77;21040;-84
2020/12/11 10:51:37;;;;;;;47.13;20.05;;;;;;;-1.54;89.65;99599.18;1838836;77;21029;-77
2020/12/11 10:54:04;;;;;;;49.75;20.92;;;;;;;-1.59;89.96;99603.63;1826788;77;21487;-77
2020/12/11 10:56:33;;;;;;;51.65;21.00;;;;;;;-1.62;90.18;99606.27;1822818;77;21111;-78
2020/12/11 10:59:00;;;;;;;51.40;21.30;;;;;;;-1.69;90.31;99602.34;1833106;77;21360;-78
2020/12/11 11:01:29;;;;;;;55.40;22.35;;;;;;;-1.75;90.50;99592.55;1825629;77;21006;-75
2020/12/11 11:03:57;;;;;;;50.90;22.87;;;;;;;-1.82;90.68;99595.06;1826581;77;20905;-75
2020/12/11 11:06:29;;;;;;;48.28;21.33;;;;;;;-1.84;91.53;99604.71;1827394;77;20912;-76
2020/12/11 11:11:28;;;;;;;41.45;18.48;;;;;;;-1.84;91.45;99591.26;1832610;77;21521;-83
2020/12/11 11:27:36;;;;;;;49.20;22.32;;;;;;;-2.06;92.09;99587.50;1899319;75;22302;-80
2020/12/11 11:29:59;;;;;;;49.70;22.17;;;;;;;-2.12;92.29;99586.55;1864720;76;21480;-85
2020/12/11 11:32:27;;;;;;;50.08;23.10;;;;;;;-2.12;92.68;99575.80;1874935;76;22238;-84
2020/12/11 11:34:54;;;;;;;46.13;22.07;;;;;;;-2.13;92.58;99574.16;1882084;76;20931;-79
2020/12/11 11:37:28;;;;;;;56.20;23.38;;;;;;;-2.11;93.06;99570.71;1882232;76;20930;-83
2020/12/11 11:39:55;;;;;;;56.37;24.23;;;;;;;-2.08;93.10;99568.91;1882319;76;20974;-86
2020/12/11 11:42:23;;;;;;;53.08;20.95;;;;;;;-2.11;92.74;99559.13;1882147;76;20990;-84
2020/12/11 11:44:54;;;;;;;44.88;20.55;;;;;;;-2.15;92.49;99560.13;1788611;79;21196;-82
2020/12/11 11:47:21;;;;;;;47.80;20.70;;;;;;;-2.19;92.59;99558.95;1789243;80;20972;-84
2020/12/11 11:52:29;;;;;;;47.73;21.55;;;;;;;-2.23;92.65;99561.81;1787450;79;21020;-83
2020/12/11 11:54:51;;;;;;;;;;;;;;;-2.25;92.38;99559.05;1786221;80;21548;-78
2020/12/11 11:57:18;;;;;;;56.05;23.67;;;;;;;-2.24;93.29;99556.66;1784732;80;21194;-85
2020/12/11 11:59:48;;;;;;;45.17;21.23;;;;;;;-2.25;92.95;99547.77;1786911;80;20950;-76
2020/12/11 12:02:16;;;;;;;49.42;22.10;;;;;;;-2.26;92.96;99546.66;1795015;80;21143;-76
2020/12/11 12:04:43;;;;;;;48.13;22.22;;;;;;;-2.27;93.01;99543.16;1794745;80;21172;-77
2020/12/11 12:07:11;;;;;;;44.35;21.25;;;;;;;-2.28;92.94;99544.20;1795865;79;21494;-80